sensor_id;sensor_type;location;lat;lon;timestamp;pressure;altitude;pressure_sealevel;temperature;humidity
17230;BME280;8731;50.364;8.958;2023-04-24T00:03:46;98888.09;;;12.81;83.20
17230;BME280;8731;50.364;8.958;2023-04-24T00:08:08;98883.94;;;12.83;84.29
17230;BME280;8731;50.364;8.958;2023-04-24T00:12:31;98874.72;;;12.72;84.60
17230;BME280;8731;50.364;8.958;2023-04-24T00:16:54;98879.22;;;12.76;84.88
17230;BME280;8731;50.364;8.958;2023-04-24T00:21:17;98873.94;;;12.73;85.04
17230;BME280;8731;50.364;8.958;2023-04-24T00:25:40;98869.59;;;12.72;83.31
17230;BME280;8731;50.364;8.958;2023-04-24T00:30:04;98857.63;;;12.71;85.76
17230;BME280;8731;50.364;8.958;2023-04-24T00:34:28;98847.91;;;12.78;84.89
17230;BME280;8731;50.364;8.958;2023-04-24T00:38:52;98850.06;;;12.72;84.46
17230;BME280;8731;50.364;8.958;2023-04-24T00:43:15;98854.59;;;12.63;83.58
17230;BME280;8731;50.364;8.958;2023-04-24T00:47:38;98851.16;;;12.63;84.57
17230;BME280;8731;50.364;8.958;2023-04-24T00:52:02;98840.03;;;12.75;84.27
17230;BME280;8731;50.364;8.958;2023-04-24T00:56:28;98840.34;;;12.67;85.35
17230;BME280;8731;50.364;8.958;2023-04-24T01:00:51;98839.47;;;12.66;84.20
17230;BME280;8731;50.364;8.958;2023-04-24T01:05:15;98831.44;;;12.60;84.91
17230;BME280;8731;50.364;8.958;2023-04-24T01:09:41;98821.69;;;12.68;84.45
17230;BME280;8731;50.364;8.958;2023-04-24T01:14:03;98828.22;;;12.77;84.24
17230;BME280;8731;50.364;8.958;2023-04-24T01:18:26;98826.09;;;12.70;83.98
17230;BME280;8731;50.364;8.958;2023-04-24T01:22:50;98830.84;;;12.64;83.11
17230;BME280;8731;50.364;8.958;2023-04-24T01:27:13;98824.34;;;12.69;82.11
17230;BME280;8731;50.364;8.958;2023-04-24T01:31:35;98828.22;;;12.77;84.71
17230;BME280;8731;50.364;8.958;2023-04-24T01:35:58;98824.75;;;12.62;85.92
17230;BME280;8731;50.364;8.958;2023-04-24T01:40:22;98820.09;;;12.70;84.76
17230;BME280;8731;50.364;8.958;2023-04-24T01:44:45;98814.44;;;12.60;86.74
17230;BME280;8731;50.364;8.958;2023-04-24T01:49:08;98822.38;;;12.52;86.00
17230;BME280;8731;50.364;8.958;2023-04-24T01:53:30;98839.28;;;12.63;85.80
17230;BME280;8731;50.364;8.958;2023-04-24T01:57:55;98829.47;;;12.56;84.80
17230;BME280;8731;50.364;8.958;2023-04-24T02:02:18;98825.16;;;12.55;85.73
17230;BME280;8731;50.364;8.958;2023-04-24T02:06:41;98823.25;;;12.66;85.01
17230;BME280;8731;50.364;8.958;2023-04-24T02:11:04;98815.13;;;12.58;85.68
17230;BME280;8731;50.364;8.958;2023-04-24T02:15:27;98813.38;;;12.57;85.00
17230;BME280;8731;50.364;8.958;2023-04-24T02:19:50;98796.66;;;12.62;85.41
17230;BME280;8731;50.364;8.958;2023-04-24T02:24:12;98799.31;;;12.64;85.88
17230;BME280;8731;50.364;8.958;2023-04-24T02:28:36;98795.50;;;12.57;83.03
17230;BME280;8731;50.364;8.958;2023-04-24T02:32:59;98800.97;;;12.63;83.84
17230;BME280;8731;50.364;8.958;2023-04-24T02:37:22;98800.59;;;12.44;85.12
17230;BME280;8731;50.364;8.958;2023-04-24T02:41:45;98799.22;;;12.49;84.70
17230;BME280;8731;50.364;8.958;2023-04-24T02:46:07;98799.63;;;12.55;82.81
17230;BME280;8731;50.364;8.958;2023-04-24T02:50:31;98801.50;;;12.44;84.29
17230;BME280;8731;50.364;8.958;2023-04-24T02:54:53;98796.66;;;12.49;84.97
17230;BME280;8731;50.364;8.958;2023-04-24T02:59:16;98795.78;;;12.62;85.71
17230;BME280;8731;50.364;8.958;2023-04-24T03:03:39;98797.66;;;12.51;85.44
17230;BME280;8731;50.364;8.958;2023-04-24T03:08:02;98804.72;;;12.55;84.44
17230;BME280;8731;50.364;8.958;2023-04-24T03:12:25;98802.97;;;12.54;85.11
17230;BME280;8731;50.364;8.958;2023-04-24T03:16:47;98814.16;;;12.43;84.06
17230;BME280;8731;50.364;8.958;2023-04-24T03:21:11;98805.72;;;12.44;85.42
17230;BME280;8731;50.364;8.958;2023-04-24T03:25:36;98815.03;;;12.43;85.84
17230;BME280;8731;50.364;8.958;2023-04-24T03:29:58;98815.84;;;12.42;86.04
17230;BME280;8731;50.364;8.958;2023-04-24T03:34:41;98822.03;;;12.33;86.05
17230;BME280;8731;50.364;8.958;2023-04-24T03:39:06;98827.22;;;12.34;86.30
17230;BME280;8731;50.364;8.958;2023-04-24T03:43:32;98826.72;;;12.26;86.52
17230;BME280;8731;50.364;8.958;2023-04-24T03:47:56;98828.22;;;12.36;86.66
17230;BME280;8731;50.364;8.958;2023-04-24T03:52:19;98839.31;;;12.37;86.58
17230;BME280;8731;50.364;8.958;2023-04-24T03:56:42;98852.25;;;12.26;87.49
17230;BME280;8731;50.364;8.958;2023-04-24T04:01:05;98848.72;;;12.24;87.01
17230;BME280;8731;50.364;8.958;2023-04-24T04:05:45;98862.56;;;12.15;87.28
17230;BME280;8731;50.364;8.958;2023-04-24T04:10:09;98857.66;;;12.31;85.42
17230;BME280;8731;50.364;8.958;2023-04-24T04:14:32;98868.16;;;12.09;86.96
17230;BME280;8731;50.364;8.958;2023-04-24T04:18:57;98879.72;;;12.17;87.03
17230;BME280;8731;50.364;8.958;2023-04-24T04:23:20;98876.38;;;12.05;88.62
17230;BME280;8731;50.364;8.958;2023-04-24T04:28:12;98880.13;;;12.10;88.72
17230;BME280;8731;50.364;8.958;2023-04-24T04:32:39;98879.34;;;12.11;88.90
17230;BME280;8731;50.364;8.958;2023-04-24T04:37:04;98885.81;;;12.19;88.19
17230;BME280;8731;50.364;8.958;2023-04-24T04:46:17;98899.91;;;12.01;89.07
17230;BME280;8731;50.364;8.958;2023-04-24T04:51:00;98897.75;;;11.94;88.23
17230;BME280;8731;50.364;8.958;2023-04-24T04:55:25;98913.91;;;11.69;86.32
17230;BME280;8731;50.364;8.958;2023-04-24T05:00:09;98913.22;;;11.84;84.21
17230;BME280;8731;50.364;8.958;2023-04-24T05:04:40;98916.09;;;11.77;83.57
17230;BME280;8731;50.364;8.958;2023-04-24T05:09:02;98914.66;;;11.80;82.35
17230;BME280;8731;50.364;8.958;2023-04-24T05:13:34;98927.97;;;11.76;80.50
17230;BME280;8731;50.364;8.958;2023-04-24T05:17:59;98929.91;;;11.92;80.47
17230;BME280;8731;50.364;8.958;2023-04-24T05:22:22;98938.44;;;11.92;81.43
17230;BME280;8731;50.364;8.958;2023-04-24T05:26:46;98937.66;;;11.93;80.91
17230;BME280;8731;50.364;8.958;2023-04-24T05:31:14;98945.28;;;12.18;80.53
17230;BME280;8731;50.364;8.958;2023-04-24T05:35:40;98945.50;;;13.01;78.32
17230;BME280;8731;50.364;8.958;2023-04-24T05:40:08;98936.09;;;13.26;74.23
17230;BME280;8731;50.364;8.958;2023-04-24T05:49:19;98941.59;;;14.32;66.91
17230;BME280;8731;50.364;8.958;2023-04-24T05:53:42;98954.91;;;14.12;64.47
17230;BME280;8731;50.364;8.958;2023-04-24T06:02:41;98973.97;;;14.45;59.83
17230;BME280;8731;50.364;8.958;2023-04-24T06:07:08;98971.25;;;15.33;59.75
17230;BME280;8731;50.364;8.958;2023-04-24T06:11:33;98966.38;;;15.85;56.30
17230;BME280;8731;50.364;8.958;2023-04-24T06:15:56;98974.50;;;16.27;54.67
17230;BME280;8731;50.364;8.958;2023-04-24T06:20:29;98982.91;;;16.75;53.59
17230;BME280;8731;50.364;8.958;2023-04-24T06:24:53;98987.81;;;17.24;54.99
17230;BME280;8731;50.364;8.958;2023-04-24T06:29:15;98983.28;;;17.00;53.60
17230;BME280;8731;50.364;8.958;2023-04-24T06:33:37;98989.13;;;17.51;51.84
17230;BME280;8731;50.364;8.958;2023-04-24T06:38:00;98985.56;;;16.94;52.71
17230;BME280;8731;50.364;8.958;2023-04-24T06:42:24;98999.19;;;16.41;52.71
17230;BME280;8731;50.364;8.958;2023-04-24T06:46:46;98997.31;;;16.71;53.35
17230;BME280;8731;50.364;8.958;2023-04-24T06:51:08;98992.75;;;17.19;51.93
17230;BME280;8731;50.364;8.958;2023-04-24T06:55:31;98997.84;;;17.17;53.00
17230;BME280;8731;50.364;8.958;2023-04-24T06:59:54;99005.34;;;17.13;51.61
17230;BME280;8731;50.364;8.958;2023-04-24T07:04:17;99007.66;;;17.44;51.01
17230;BME280;8731;50.364;8.958;2023-04-24T07:08:39;99010.75;;;17.92;50.97
17230;BME280;8731;50.364;8.958;2023-04-24T07:13:02;99016.56;;;17.88;50.06
17230;BME280;8731;50.364;8.958;2023-04-24T07:17:28;99005.84;;;17.24;49.09
17230;BME280;8731;50.364;8.958;2023-04-24T07:21:50;99001.75;;;17.64;49.31
17230;BME280;8731;50.364;8.958;2023-04-24T07:26:13;99001.13;;;18.26;48.69
17230;BME280;8731;50.364;8.958;2023-04-24T07:30:36;99010.75;;;17.92;49.72
17230;BME280;8731;50.364;8.958;2023-04-24T07:34:59;99012.91;;;17.83;50.01
17230;BME280;8731;50.364;8.958;2023-04-24T07:39:23;99004.16;;;18.58;49.75
17230;BME280;8731;50.364;8.958;2023-04-24T07:43:46;98991.44;;;18.41;47.88
17230;BME280;8731;50.364;8.958;2023-04-24T07:48:08;99010.59;;;17.52;51.81
17230;BME280;8731;50.364;8.958;2023-04-24T07:52:32;98998.09;;;17.41;49.67
17230;BME280;8731;50.364;8.958;2023-04-24T07:56:54;98996.09;;;18.29;48.32
17230;BME280;8731;50.364;8.958;2023-04-24T08:01:17;99002.59;;;18.21;49.51
17230;BME280;8731;50.364;8.958;2023-04-24T08:05:40;99010.59;;;18.27;50.79
17230;BME280;8731;50.364;8.958;2023-04-24T08:10:05;99001.00;;;18.44;47.31
17230;BME280;8731;50.364;8.958;2023-04-24T08:14:28;99004.66;;;19.32;46.21
17230;BME280;8731;50.364;8.958;2023-04-24T08:18:51;99007.50;;;18.75;48.31
17230;BME280;8731;50.364;8.958;2023-04-24T08:23:14;99013.31;;;19.12;46.47
17230;BME280;8731;50.364;8.958;2023-04-24T08:27:38;99010.44;;;18.63;47.34
17230;BME280;8731;50.364;8.958;2023-04-24T08:32:00;99016.88;;;19.16;46.01
17230;BME280;8731;50.364;8.958;2023-04-24T08:36:22;99012.38;;;18.89;46.94
17230;BME280;8731;50.364;8.958;2023-04-24T08:40:46;99016.28;;;19.00;45.42
17230;BME280;8731;50.364;8.958;2023-04-24T08:45:12;99026.69;;;18.62;48.12
17230;BME280;8731;50.364;8.958;2023-04-24T08:49:36;99026.53;;;18.38;49.69
17230;BME280;8731;50.364;8.958;2023-04-24T08:53:59;99032.22;;;17.55;49.01
17230;BME280;8731;50.364;8.958;2023-04-24T08:58:25;99033.41;;;17.08;49.43
17230;BME280;8731;50.364;8.958;2023-04-24T09:02:50;99039.13;;;16.85;49.75
17230;BME280;8731;50.364;8.958;2023-04-24T09:07:14;99048.53;;;16.84;49.83
17230;BME280;8731;50.364;8.958;2023-04-24T09:11:39;99055.25;;;16.00;51.40
17230;BME280;8731;50.364;8.958;2023-04-24T09:16:02;99060.19;;;15.64;51.45
17230;BME280;8731;50.364;8.958;2023-04-24T09:20:26;99065.16;;;15.46;52.48
17230;BME280;8731;50.364;8.958;2023-04-24T09:24:59;99074.03;;;15.22;53.36
17230;BME280;8731;50.364;8.958;2023-04-24T09:29:24;99073.16;;;15.21;53.21
17230;BME280;8731;50.364;8.958;2023-04-24T09:33:53;99083.59;;;14.80;54.24
17230;BME280;8731;50.364;8.958;2023-04-24T09:38:18;99083.78;;;14.68;54.72
17230;BME280;8731;50.364;8.958;2023-04-24T09:42:45;99087.47;;;14.44;55.15
17230;BME280;8731;50.364;8.958;2023-04-24T09:47:13;99089.25;;;14.74;55.09
17230;BME280;8731;50.364;8.958;2023-04-24T09:51:38;99101.97;;;14.88;55.23
17230;BME280;8731;50.364;8.958;2023-04-24T09:56:08;99107.25;;;14.61;56.49
17230;BME280;8731;50.364;8.958;2023-04-24T10:00:33;99120.56;;;14.28;57.52
17230;BME280;8731;50.364;8.958;2023-04-24T10:04:55;99112.91;;;14.56;57.73
17230;BME280;8731;50.364;8.958;2023-04-24T10:09:21;99109.97;;;14.22;58.24
17230;BME280;8731;50.364;8.958;2023-04-24T10:13:45;99115.66;;;13.90;58.74
17230;BME280;8731;50.364;8.958;2023-04-24T10:18:09;99119.50;;;13.83;59.57
17230;BME280;8731;50.364;8.958;2023-04-24T10:22:32;99126.50;;;14.13;59.52
17230;BME280;8731;50.364;8.958;2023-04-24T10:26:56;99126.22;;;14.50;59.00
17230;BME280;8731;50.364;8.958;2023-04-24T10:31:21;99120.09;;;14.76;58.25
17230;BME280;8731;50.364;8.958;2023-04-24T10:35:46;99138.28;;;14.81;57.99
17230;BME280;8731;50.364;8.958;2023-04-24T10:40:12;99146.72;;;14.93;58.83
17230;BME280;8731;50.364;8.958;2023-04-24T10:44:40;99141.06;;;14.98;58.61
17230;BME280;8731;50.364;8.958;2023-04-24T10:49:05;99160.16;;;14.61;59.27
17230;BME280;8731;50.364;8.958;2023-04-24T10:53:30;99169.88;;;15.09;59.19
17230;BME280;8731;50.364;8.958;2023-04-24T10:58:02;99159.13;;;15.15;59.51
17230;BME280;8731;50.364;8.958;2023-04-24T11:02:36;99166.44;;;14.66;61.36
17230;BME280;8731;50.364;8.958;2023-04-24T11:07:02;99182.69;;;14.66;62.88
17230;BME280;8731;50.364;8.958;2023-04-24T11:11:28;99176.13;;;14.85;61.63
17230;BME280;8731;50.364;8.958;2023-04-24T11:16:13;99173.38;;;14.67;62.67
17230;BME280;8731;50.364;8.958;2023-04-24T11:20:36;99178.00;;;14.18;62.73
17230;BME280;8731;50.364;8.958;2023-04-24T11:25:05;99186.78;;;13.95;64.01
17230;BME280;8731;50.364;8.958;2023-04-24T11:29:42;99200.88;;;14.02;67.41
17230;BME280;8731;50.364;8.958;2023-04-24T11:34:08;99228.44;;;14.06;69.75
17230;BME280;8731;50.364;8.958;2023-04-24T11:38:32;99239.75;;;14.09;71.16
17230;BME280;8731;50.364;8.958;2023-04-24T11:42:56;99226.47;;;14.02;71.55
17230;BME280;8731;50.364;8.958;2023-04-24T11:47:27;99231.19;;;14.22;72.88
17230;BME280;8731;50.364;8.958;2023-04-24T11:51:54;99228.34;;;14.59;71.33
17230;BME280;8731;50.364;8.958;2023-04-24T11:56:17;99242.09;;;14.33;73.18
17230;BME280;8731;50.364;8.958;2023-04-24T12:00:42;99225.66;;;14.29;70.40
17230;BME280;8731;50.364;8.958;2023-04-24T12:05:06;99240.25;;;14.71;70.30
17230;BME280;8731;50.364;8.958;2023-04-24T12:09:40;99246.25;;;15.00;67.96
17230;BME280;8731;50.364;8.958;2023-04-24T12:14:10;99237.94;;;15.04;67.38
17230;BME280;8731;50.364;8.958;2023-04-24T12:18:34;99240.47;;;14.61;68.22
17230;BME280;8731;50.364;8.958;2023-04-24T12:22:57;99249.16;;;14.37;67.11
17230;BME280;8731;50.364;8.958;2023-04-24T12:27:21;99248.81;;;14.72;67.40
17230;BME280;8731;50.364;8.958;2023-04-24T12:31:43;99236.91;;;14.87;66.46
17230;BME280;8731;50.364;8.958;2023-04-24T12:36:09;99237.94;;;15.04;64.49
17230;BME280;8731;50.364;8.958;2023-04-24T12:40:33;99234.41;;;15.02;63.83
17230;BME280;8731;50.364;8.958;2023-04-24T12:44:57;99251.06;;;15.23;63.01
17230;BME280;8731;50.364;8.958;2023-04-24T12:49:21;99244.41;;;15.12;62.15
17230;BME280;8731;50.364;8.958;2023-04-24T12:53:45;99272.41;;;14.94;64.53
17230;BME280;8731;50.364;8.958;2023-04-24T12:58:07;99277.53;;;14.94;66.19
17230;BME280;8731;50.364;8.958;2023-04-24T13:02:30;99288.28;;;14.89;65.90
17230;BME280;8731;50.364;8.958;2023-04-24T13:06:52;99292.94;;;15.09;63.90
17230;BME280;8731;50.364;8.958;2023-04-24T13:11:16;99300.06;;;14.72;63.45
17230;BME280;8731;50.364;8.958;2023-04-24T13:15:38;99305.47;;;14.77;63.39
17230;BME280;8731;50.364;8.958;2023-04-24T13:20:00;99308.94;;;14.64;64.65
17230;BME280;8731;50.364;8.958;2023-04-24T13:24:23;99308.66;;;14.33;65.46
17230;BME280;8731;50.364;8.958;2023-04-24T13:28:48;99288.94;;;14.71;66.33
17230;BME280;8731;50.364;8.958;2023-04-24T13:33:10;99291.34;;;14.29;67.69
17230;BME280;8731;50.364;8.958;2023-04-24T13:37:32;99293.72;;;14.52;66.09
17230;BME280;8731;50.364;8.958;2023-04-24T13:41:55;99298.91;;;14.67;65.85
17230;BME280;8731;50.364;8.958;2023-04-24T13:46:19;99292.59;;;14.90;65.57
17230;BME280;8731;50.364;8.958;2023-04-24T13:50:41;99289.75;;;14.98;62.87
17230;BME280;8731;50.364;8.958;2023-04-24T13:55:05;99289.97;;;15.31;61.99
17230;BME280;8731;50.364;8.958;2023-04-24T13:59:28;99287.31;;;15.29;60.87
17230;BME280;8731;50.364;8.958;2023-04-24T14:03:51;99297.84;;;14.91;60.14
17230;BME280;8731;50.364;8.958;2023-04-24T14:08:14;99289.41;;;15.07;59.81
17230;BME280;8731;50.364;8.958;2023-04-24T14:12:36;99295.06;;;14.88;60.19
17230;BME280;8731;50.364;8.958;2023-04-24T14:16:58;99296.53;;;14.70;60.92
17230;BME280;8731;50.364;8.958;2023-04-24T14:21:22;99302.78;;;14.47;63.01
17230;BME280;8731;50.364;8.958;2023-04-24T14:25:44;99300.22;;;14.47;61.94
17230;BME280;8731;50.364;8.958;2023-04-24T14:34:59;99298.72;;;14.51;61.18
17230;BME280;8731;50.364;8.958;2023-04-24T14:39:23;99285.88;;;14.64;60.23
17230;BME280;8731;50.364;8.958;2023-04-24T14:43:46;99283.75;;;14.57;59.21
17230;BME280;8731;50.364;8.958;2023-04-24T14:48:09;99290.00;;;14.75;59.23
17230;BME280;8731;50.364;8.958;2023-04-24T14:52:31;99292.06;;;14.81;57.14
17230;BME280;8731;50.364;8.958;2023-04-24T14:56:55;99285.94;;;14.92;57.64
17230;BME280;8731;50.364;8.958;2023-04-24T15:01:18;99303.97;;;15.08;57.83
17230;BME280;8731;50.364;8.958;2023-04-24T15:05:41;99296.06;;;14.90;58.33
17230;BME280;8731;50.364;8.958;2023-04-24T15:10:04;99302.69;;;14.87;58.06
17230;BME280;8731;50.364;8.958;2023-04-24T15:14:28;99312.44;;;14.51;56.34
17230;BME280;8731;50.364;8.958;2023-04-24T15:18:51;99310.44;;;14.60;57.32
17230;BME280;8731;50.364;8.958;2023-04-24T15:23:13;99321.56;;;14.34;56.75
17230;BME280;8731;50.364;8.958;2023-04-24T15:27:40;99321.38;;;14.31;57.33
17230;BME280;8731;50.364;8.958;2023-04-24T15:32:04;99315.84;;;14.38;57.61
17230;BME280;8731;50.364;8.958;2023-04-24T15:36:27;99330.13;;;14.35;58.76
17230;BME280;8731;50.364;8.958;2023-04-24T15:40:50;99324.25;;;14.49;58.72
17230;BME280;8731;50.364;8.958;2023-04-24T15:45:12;99321.06;;;14.40;59.57
17230;BME280;8731;50.364;8.958;2023-04-24T15:49:36;99322.91;;;14.42;58.58
17230;BME280;8731;50.364;8.958;2023-04-24T15:53:58;99326.19;;;14.66;59.21
17230;BME280;8731;50.364;8.958;2023-04-24T15:58:21;99326.19;;;14.66;58.11
17230;BME280;8731;50.364;8.958;2023-04-24T16:02:44;99325.03;;;14.48;58.86
17230;BME280;8731;50.364;8.958;2023-04-24T16:07:07;99318.44;;;14.52;58.46
17230;BME280;8731;50.364;8.958;2023-04-24T16:11:30;99324.03;;;14.72;57.45
17230;BME280;8731;50.364;8.958;2023-04-24T16:15:55;99320.72;;;14.47;57.41
17230;BME280;8731;50.364;8.958;2023-04-24T16:20:18;99325.81;;;14.60;58.35
17230;BME280;8731;50.364;8.958;2023-04-24T16:24:42;99325.13;;;14.50;58.40
17230;BME280;8731;50.364;8.958;2023-04-24T16:29:06;99337.22;;;14.26;58.87
17230;BME280;8731;50.364;8.958;2023-04-24T16:33:28;99337.94;;;14.23;60.00
17230;BME280;8731;50.364;8.958;2023-04-24T16:37:51;99338.88;;;14.38;60.44
17230;BME280;8731;50.364;8.958;2023-04-24T16:42:15;99339.19;;;14.17;60.35
17230;BME280;8731;50.364;8.958;2023-04-24T16:46:37;99338.63;;;14.21;59.85
17230;BME280;8731;50.364;8.958;2023-04-24T16:50:59;99344.50;;;14.33;59.43
17230;BME280;8731;50.364;8.958;2023-04-24T16:55:22;99348.63;;;14.04;59.42
17230;BME280;8731;50.364;8.958;2023-04-24T16:59:46;99344.81;;;14.24;59.14
17230;BME280;8731;50.364;8.958;2023-04-24T17:04:08;99342.53;;;14.16;59.81
17230;BME280;8731;50.364;8.958;2023-04-24T17:08:30;99340.97;;;14.04;59.87
17230;BME280;8731;50.364;8.958;2023-04-24T17:12:53;99346.84;;;14.17;59.82
17230;BME280;8731;50.364;8.958;2023-04-24T17:17:17;99349.03;;;13.97;60.36
17230;BME280;8731;50.364;8.958;2023-04-24T17:21:42;99355.38;;;13.77;60.54
17230;BME280;8731;50.364;8.958;2023-04-24T17:26:05;99365.09;;;13.70;63.29
17230;BME280;8731;50.364;8.958;2023-04-24T17:30:27;99361.84;;;13.23;67.50
17230;BME280;8731;50.364;8.958;2023-04-24T17:34:51;99362.13;;;13.64;66.02
17230;BME280;8731;50.364;8.958;2023-04-24T17:39:13;99370.78;;;13.66;65.02
17230;BME280;8731;50.364;8.958;2023-04-24T17:43:36;99363.19;;;13.54;64.35
17230;BME280;8731;50.364;8.958;2023-04-24T17:47:58;99373.03;;;13.61;63.48
17230;BME280;8731;50.364;8.958;2023-04-24T17:52:22;99378.34;;;13.51;63.89
17230;BME280;8731;50.364;8.958;2023-04-24T17:56:44;99384.34;;;13.65;63.38
17230;BME280;8731;50.364;8.958;2023-04-24T18:01:07;99381.28;;;13.57;63.67
17230;BME280;8731;50.364;8.958;2023-04-24T18:05:31;99383.28;;;13.36;63.71
17230;BME280;8731;50.364;8.958;2023-04-24T18:09:56;99392.09;;;13.28;63.99
17230;BME280;8731;50.364;8.958;2023-04-24T18:14:18;99392.56;;;13.11;65.10
17230;BME280;8731;50.364;8.958;2023-04-24T18:18:41;99388.88;;;13.19;64.40
17230;BME280;8731;50.364;8.958;2023-04-24T18:23:05;99389.91;;;12.98;65.36
17230;BME280;8731;50.364;8.958;2023-04-24T18:27:29;99390.59;;;12.95;65.28
17230;BME280;8731;50.364;8.958;2023-04-24T18:31:52;99392.25;;;12.95;65.27
17230;BME280;8731;50.364;8.958;2023-04-24T18:36:15;99389.69;;;12.95;64.83
17230;BME280;8731;50.364;8.958;2023-04-24T18:40:38;99393.38;;;12.75;65.20
17230;BME280;8731;50.364;8.958;2023-04-24T18:45:01;99410.84;;;12.80;64.62
17230;BME280;8731;50.364;8.958;2023-04-24T18:49:24;99413.72;;;12.85;64.59
17230;BME280;8731;50.364;8.958;2023-04-24T18:53:46;99417.50;;;12.43;67.38
17230;BME280;8731;50.364;8.958;2023-04-24T18:58:09;99418.81;;;12.50;67.64
17230;BME280;8731;50.364;8.958;2023-04-24T19:02:32;99416.81;;;12.22;68.73
17230;BME280;8731;50.364;8.958;2023-04-24T19:06:55;99420.63;;;12.39;69.36
17230;BME280;8731;50.364;8.958;2023-04-24T19:11:20;99419.59;;;12.49;69.33
17230;BME280;8731;50.364;8.958;2023-04-24T19:15:43;99421.97;;;12.57;68.34
17230;BME280;8731;50.364;8.958;2023-04-24T19:20:07;99427.75;;;12.55;68.06
17230;BME280;8731;50.364;8.958;2023-04-24T19:24:31;99446.66;;;12.23;70.79
17230;BME280;8731;50.364;8.958;2023-04-24T19:28:53;99433.81;;;12.45;70.59
17230;BME280;8731;50.364;8.958;2023-04-24T19:33:17;99437.81;;;12.42;70.87
17230;BME280;8731;50.364;8.958;2023-04-24T19:37:40;99455.88;;;12.21;72.73
17230;BME280;8731;50.364;8.958;2023-04-24T19:42:03;99459.31;;;12.10;74.77
17230;BME280;8731;50.364;8.958;2023-04-24T19:46:25;99460.31;;;12.24;74.55
17230;BME280;8731;50.364;8.958;2023-04-24T19:50:48;99463.31;;;12.07;74.21
17230;BME280;8731;50.364;8.958;2023-04-24T19:55:11;99460.41;;;12.14;74.87
17230;BME280;8731;50.364;8.958;2023-04-24T19:59:34;99459.66;;;12.26;73.83
17230;BME280;8731;50.364;8.958;2023-04-24T20:03:56;99452.66;;;12.12;75.23
17230;BME280;8731;50.364;8.958;2023-04-24T20:08:18;99449.66;;;12.18;74.60
17230;BME280;8731;50.364;8.958;2023-04-24T20:12:42;99447.22;;;12.19;74.95
17230;BME280;8731;50.364;8.958;2023-04-24T20:17:05;99443.84;;;11.97;76.17
17230;BME280;8731;50.364;8.958;2023-04-24T20:21:28;99441.75;;;12.03;75.49
17230;BME280;8731;50.364;8.958;2023-04-24T20:25:51;99443.84;;;11.97;75.58
17230;BME280;8731;50.364;8.958;2023-04-24T20:30:18;99442.69;;;11.82;75.31
17230;BME280;8731;50.364;8.958;2023-04-24T20:34:41;99454.44;;;11.80;75.40
17230;BME280;8731;50.364;8.958;2023-04-24T20:39:03;99440.00;;;11.58;77.17
17230;BME280;8731;50.364;8.958;2023-04-24T20:43:27;99443.72;;;11.74;76.85
17230;BME280;8731;50.364;8.958;2023-04-24T20:47:51;99439.34;;;11.83;76.99
17230;BME280;8731;50.364;8.958;2023-04-24T20:52:13;99437.50;;;11.92;76.72
17230;BME280;8731;50.364;8.958;2023-04-24T20:56:35;99439.94;;;11.68;79.02
17230;BME280;8731;50.364;8.958;2023-04-24T21:00:58;99429.31;;;11.74;78.59
17230;BME280;8731;50.364;8.958;2023-04-24T21:05:21;99435.06;;;11.60;79.18
17230;BME280;8731;50.364;8.958;2023-04-24T21:09:44;99439.06;;;11.68;78.85
17230;BME280;8731;50.364;8.958;2023-04-24T21:14:06;99438.00;;;11.54;79.76
17230;BME280;8731;50.364;8.958;2023-04-24T21:18:29;99440.31;;;11.51;81.20
17230;BME280;8731;50.364;8.958;2023-04-24T21:22:53;99431.84;;;11.62;80.11
17230;BME280;8731;50.364;8.958;2023-04-24T21:27:15;99435.44;;;11.54;80.44
17230;BME280;8731;50.364;8.958;2023-04-24T21:31:38;99428.41;;;11.62;80.33
17230;BME280;8731;50.364;8.958;2023-04-24T21:36:00;99422.03;;;11.57;81.07
17230;BME280;8731;50.364;8.958;2023-04-24T21:40:24;99426.03;;;11.53;81.02
17230;BME280;8731;50.364;8.958;2023-04-24T21:44:46;99430.78;;;11.27;81.64
17230;BME280;8731;50.364;8.958;2023-04-24T21:49:09;99427.66;;;11.19;82.23
17230;BME280;8731;50.364;8.958;2023-04-24T21:53:31;99417.63;;;11.32;82.95
17230;BME280;8731;50.364;8.958;2023-04-24T21:57:55;99421.94;;;11.33;83.39
17230;BME280;8731;50.364;8.958;2023-04-24T22:02:17;99415.56;;;11.38;82.61
17230;BME280;8731;50.364;8.958;2023-04-24T22:06:40;99418.69;;;11.24;83.67
17230;BME280;8731;50.364;8.958;2023-04-24T22:11:02;99424.69;;;11.25;83.65
17230;BME280;8731;50.364;8.958;2023-04-24T22:15:27;99416.25;;;11.26;83.40
17230;BME280;8731;50.364;8.958;2023-04-24T22:19:49;99414.06;;;11.30;83.14
17230;BME280;8731;50.364;8.958;2023-04-24T22:24:11;99413.13;;;11.18;84.16
17230;BME280;8731;50.364;8.958;2023-04-24T22:28:33;99416.78;;;11.00;85.95
17230;BME280;8731;50.364;8.958;2023-04-24T22:32:57;99424.91;;;11.06;86.88
17230;BME280;8731;50.364;8.958;2023-04-24T22:37:19;99421.69;;;11.08;87.39
17230;BME280;8731;50.364;8.958;2023-04-24T22:41:42;99423.13;;;11.05;87.58
17230;BME280;8731;50.364;8.958;2023-04-24T22:46:04;99427.66;;;10.87;90.10
17230;BME280;8731;50.364;8.958;2023-04-24T22:50:28;99423.91;;;10.72;91.75
17230;BME280;8731;50.364;8.958;2023-04-24T22:54:50;99419.28;;;10.78;90.87
17230;BME280;8731;50.364;8.958;2023-04-24T22:59:12;99427.03;;;10.90;89.90
17230;BME280;8731;50.364;8.958;2023-04-24T23:03:35;99419.88;;;10.86;89.85
17230;BME280;8731;50.364;8.958;2023-04-24T23:07:58;99416.47;;;10.85;89.31
17230;BME280;8731;50.364;8.958;2023-04-24T23:12:21;99421.84;;;10.78;90.17
17230;BME280;8731;50.364;8.958;2023-04-24T23:16:43;99418.56;;;10.69;88.31
17230;BME280;8731;50.364;8.958;2023-04-24T23:21:05;99418.81;;;10.72;89.85
17230;BME280;8731;50.364;8.958;2023-04-24T23:25:29;99410.81;;;10.67;88.67
17230;BME280;8731;50.364;8.958;2023-04-24T23:29:52;99405.09;;;10.70;90.14
17230;BME280;8731;50.364;8.958;2023-04-24T23:34:14;99403.31;;;10.69;88.59
17230;BME280;8731;50.364;8.958;2023-04-24T23:38:38;99403.25;;;10.79;89.83
17230;BME280;8731;50.364;8.958;2023-04-24T23:43:01;99409.81;;;10.65;91.66
17230;BME280;8731;50.364;8.958;2023-04-24T23:47:24;99404.75;;;10.55;92.87
17230;BME280;8731;50.364;8.958;2023-04-24T23:51:46;99397.63;;;10.51;91.44
17230;BME280;8731;50.364;8.958;2023-04-24T23:56:10;99394.31;;;10.52;91.61
